Integrity — WDD7905 — position and weather

sailwx.info

Track history (hours):
 
Tides and Currents Weather Stations Pressure Air Temp Water Temp Dewpoint Dewpoint Depression Visibility Wind Speed Wind Dir Waves Ship Positions

Integrity

Owner: Intrepid Ship Management, jacksonville, FL. More information available from US FCC via Universal Licensing System and Coast Guard Vessel Documentation Center.

Last reported at 2018-Jan-04 05:32 UTC. Time now 2018-Jan-21 04:58 UTC.
Position N 26°08' W 079°56'.
Warning: this ship's position is 16 days out of date.

Length 208 m; draft 6.6 m.

Type: Towing. MMSI: 368247000.

Date/timePositionNaut miles runAvg speedWind from/ knotsBaromVisibWave heightAir tempDewpointWater temp
2018-Jan-04 05:32N 26°08' W 079°56'110.5
2018-Jan-04 05:29N 26°08' W 079°57'510.6
2018-Jan-04 05:00N 26°06' W 080°02'4 8.6
2018-Jan-04 04:30N 26°06' W 080°07'1 1.3
2018-Jan-04 04:00N 26°06' W 080°07'0 0.0
2018-Jan-04 03:30N 26°06' W 080°07'0 0.0
2018-Jan-04 02:59N 26°06' W 080°07'0 0.0
2018-Jan-04 02:29N 26°06' W 080°07'0 0.0
2018-Jan-04 02:00N 26°06' W 080°07'0 0.0
2018-Jan-04 01:29N 26°06' W 080°07'0 0.0
2018-Jan-04 01:00N 26°06' W 080°07'0 0.0
2018-Jan-04 00:30N 26°06' W 080°07'0 0.0
2018-Jan-04 00:00N 26°06' W 080°07'0 0.0
2018-Jan-03 23:29N 26°06' W 080°07'0 0.0
2018-Jan-03 22:59N 26°06' W 080°07'0 0.0
2018-Jan-03 22:30N 26°06' W 080°07'0 0.0
2018-Jan-03 21:58N 26°06' W 080°07'0 0.0
2018-Jan-03 21:30N 26°06' W 080°07'0 0.0
2018-Jan-03 21:00N 26°06' W 080°07'0 0.0
2018-Jan-03 20:30N 26°06' W 080°07'0 0.0
2018-Jan-03 20:00N 26°06' W 080°07'0 0.0
2018-Jan-03 19:30N 26°06' W 080°07'0 0.0
2018-Jan-03 19:00N 26°06' W 080°07'0 0.0
2018-Jan-03 18:30N 26°06' W 080°07'0 0.0
2018-Jan-03 17:59N 26°06' W 080°07'0 0.0
2018-Jan-03 17:30N 26°06' W 080°07'0 0.0
2018-Jan-03 17:00N 26°06' W 080°07'0 0.0
2018-Jan-03 16:28N 26°06' W 080°07'0 0.0
2018-Jan-03 16:00N 26°06' W 080°07'0 0.4
2018-Jan-03 15:30N 26°06' W 080°07'3 6.6
2018-Jan-03 15:00N 26°06' W 080°03'3 6.3
2018-Jan-03 14:30N 26°05' W 080°00'1 2.3
2018-Jan-03 14:01N 26°04' W 080°01'3 5.4
2018-Jan-03 13:30N 26°01' W 080°02'0 0.9
2018-Jan-03 13:01N 26°01' W 080°02'3 5.4
2018-Jan-03 12:30N 26°04' W 080°02'2 4.4
2018-Jan-03 12:01N 26°02' W 080°02'2 4.3
2018-Jan-03 11:31N 25°60' W 080°01'2 4.8
2018-Jan-03 11:01N 25°57' W 080°01'2 4.9
2018-Jan-03 10:31N 25°55' W 080°01'2 4.7
2018-Jan-03 10:01N 25°53' W 080°02'2 4.9
2018-Jan-03 09:30N 25°50' W 080°02'3 5.3
2018-Jan-03 09:01N 25°48' W 080°02'3 5.7
2018-Jan-03 08:31N 25°45' W 080°01'2 4.9
2018-Jan-03 08:01N 25°42' W 080°02'3 5.3
2018-Jan-03 07:31N 25°40' W 080°02'3 5.1
2018-Jan-03 07:01N 25°37' W 080°01'2 4.7
2018-Jan-03 06:31N 25°35' W 080°01'2 4.6
2018-Jan-03 06:01N 25°32' W 080°01'2 4.3
2018-Jan-03 05:31N 25°30' W 080°01'2 4.3
2018-Jan-03 05:00N 25°28' W 080°02'2 3.9
2018-Jan-03 04:31N 25°26' W 080°02'2 4.2
2018-Jan-03 04:00N 25°24' W 080°02'2 4.3
2018-Jan-03 03:29N 25°22' W 080°02'2 4.1
2018-Jan-03 03:00N 25°20' W 080°03'2 4.1
2018-Jan-03 02:30N 25°18' W 080°04'5 0.3
2018-Jan-02 06:33N 25°13' W 080°06'1 6.6
2018-Jan-02 06:21N 25°14' W 080°05'2 6.6
2018-Jan-02 06:00N 25°16' W 080°04'3 6.7
2018-Jan-02 05:30N 25°19' W 080°02'7 6.5
2018-Jan-02 04:30N 25°26' W 080°01'3 6.5
2018-Jan-02 04:00N 25°29' W 080°01'3 6.9
2018-Jan-02 03:30N 25°32' W 080°01'4 7.1
2018-Jan-02 03:00N 25°36' W 080°01'4 7.1
2018-Jan-02 02:30N 25°40' W 080°01'3 6.9
2018-Jan-02 02:00N 25°43' W 080°01'3 6.9
2018-Jan-02 01:30N 25°46' W 080°01'3 6.4
2018-Jan-02 01:00N 25°50' W 080°01'2 4.4
2018-Jan-02 00:30N 25°52' W 080°01'2 4.6
2018-Jan-02 00:00N 25°54' W 080°01'3 5.5
2018-Jan-01 23:30N 25°57' W 080°01'3 5.4
2018-Jan-01 23:00N 25°59' W 080°01'3 6.3
2018-Jan-01 22:30N 26°03' W 080°00'5 9.4
2018-Jan-01 22:00N 26°07' W 080°00'5 9.4
2018-Jan-01 21:30N 26°12' W 079°60'5 9.3
2018-Jan-01 21:00N 26°17' W 079°59'5 9.3
2018-Jan-01 20:30N 26°21' W 079°59'5 9.4
2018-Jan-01 20:00N 26°26' W 079°59'510.6
2018-Jan-01 19:30N 26°31' W 079°58'510.4
2018-Jan-01 19:00N 26°36' W 079°58'510.2
2018-Jan-01 18:30N 26°41' W 079°57'5 9.6
2018-Jan-01 18:00N 26°46' W 079°57'5 9.5
2018-Jan-01 17:30N 26°51' W 079°58'24 9.4
2018-Jan-01 15:00N 27°14' W 080°01'  
2017-Dec-27 14:55N 27°04' W 079°54'614.2
2017-Dec-27 14:30N 26°59' W 079°54'714.0
2017-Dec-27 14:00N 26°52' W 079°55'714.1
2017-Dec-27 13:31N 26°45' W 079°55'714.4
2017-Dec-27 13:01N 26°37' W 079°56'714.6
2017-Dec-27 12:30N 26°30' W 079°56'714.7
2017-Dec-27 12:00N 26°23' W 079°57'714.3
2017-Dec-27 11:30N 26°16' W 079°57'714.4
2017-Dec-27 11:00N 26°08' W 079°57'714.1
2017-Dec-27 10:30N 26°01' W 079°57'713.9
2017-Dec-27 10:01N 25°54' W 079°58'714.2
2017-Dec-27 09:30N 25°47' W 079°58'714.1
2017-Dec-27 09:00N 25°40' W 079°59'713.9
2017-Dec-27 08:30N 25°33' W 079°59'713.4
2017-Dec-27 08:00N 25°27' W 079°60'713.3
2017-Dec-27 07:30N 25°20' W 080°00'  
Track history (hours):
 
Tides and Currents Weather Stations Pressure Air Temp Water Temp Dewpoint Dewpoint Depression Visibility Wind Speed Wind Dir Waves Ship Positions

Integrity

Owner: Intrepid Ship Management, jacksonville, FL. More information available from US FCC via Universal Licensing System and Coast Guard Vessel Documentation Center.

Last reported at 2018-Jan-04 05:32 UTC. Time now 2018-Jan-21 04:58 UTC.
Position N 26°08' W 079°56'.
Warning: this ship's position is 16 days out of date.

Length 208 m; draft 6.6 m.

Type: Towing. MMSI: 368247000.

Date/timePositionNaut miles runAvg speedWind from/ knotsBaromVisibWave heightAir tempDewpointWater temp
2018-Jan-04 05:32N 26°08' W 079°56'110.5
2018-Jan-04 05:29N 26°08' W 079°57'510.6
2018-Jan-04 05:00N 26°06' W 080°02'4 8.6
2018-Jan-04 04:30N 26°06' W 080°07'1 1.3
2018-Jan-04 04:00N 26°06' W 080°07'0 0.0
2018-Jan-04 03:30N 26°06' W 080°07'0 0.0
2018-Jan-04 02:59N 26°06' W 080°07'0 0.0
2018-Jan-04 02:29N 26°06' W 080°07'0 0.0
2018-Jan-04 02:00N 26°06' W 080°07'0 0.0
2018-Jan-04 01:29N 26°06' W 080°07'0 0.0
2018-Jan-04 01:00N 26°06' W 080°07'0 0.0
2018-Jan-04 00:30N 26°06' W 080°07'0 0.0
2018-Jan-04 00:00N 26°06' W 080°07'0 0.0
2018-Jan-03 23:29N 26°06' W 080°07'0 0.0
2018-Jan-03 22:59N 26°06' W 080°07'0 0.0
2018-Jan-03 22:30N 26°06' W 080°07'0 0.0
2018-Jan-03 21:58N 26°06' W 080°07'0 0.0
2018-Jan-03 21:30N 26°06' W 080°07'0 0.0
2018-Jan-03 21:00N 26°06' W 080°07'0 0.0
2018-Jan-03 20:30N 26°06' W 080°07'0 0.0
2018-Jan-03 20:00N 26°06' W 080°07'0 0.0
2018-Jan-03 19:30N 26°06' W 080°07'0 0.0
2018-Jan-03 19:00N 26°06' W 080°07'0 0.0
2018-Jan-03 18:30N 26°06' W 080°07'0 0.0
2018-Jan-03 17:59N 26°06' W 080°07'0 0.0
2018-Jan-03 17:30N 26°06' W 080°07'0 0.0
2018-Jan-03 17:00N 26°06' W 080°07'0 0.0
2018-Jan-03 16:28N 26°06' W 080°07'0 0.0
2018-Jan-03 16:00N 26°06' W 080°07'0 0.4
2018-Jan-03 15:30N 26°06' W 080°07'3 6.6
2018-Jan-03 15:00N 26°06' W 080°03'3 6.3
2018-Jan-03 14:30N 26°05' W 080°00'1 2.3
2018-Jan-03 14:01N 26°04' W 080°01'3 5.4
2018-Jan-03 13:30N 26°01' W 080°02'0 0.9
2018-Jan-03 13:01N 26°01' W 080°02'3 5.4
2018-Jan-03 12:30N 26°04' W 080°02'2 4.4
2018-Jan-03 12:01N 26°02' W 080°02'2 4.3
2018-Jan-03 11:31N 25°60' W 080°01'2 4.8
2018-Jan-03 11:01N 25°57' W 080°01'2 4.9
2018-Jan-03 10:31N 25°55' W 080°01'2 4.7
2018-Jan-03 10:01N 25°53' W 080°02'2 4.9
2018-Jan-03 09:30N 25°50' W 080°02'3 5.3
2018-Jan-03 09:01N 25°48' W 080°02'3 5.7
2018-Jan-03 08:31N 25°45' W 080°01'2 4.9
2018-Jan-03 08:01N 25°42' W 080°02'3 5.3
2018-Jan-03 07:31N 25°40' W 080°02'3 5.1
2018-Jan-03 07:01N 25°37' W 080°01'2 4.7
2018-Jan-03 06:31N 25°35' W 080°01'2 4.6
2018-Jan-03 06:01N 25°32' W 080°01'2 4.3
2018-Jan-03 05:31N 25°30' W 080°01'2 4.3
2018-Jan-03 05:00N 25°28' W 080°02'2 3.9
2018-Jan-03 04:31N 25°26' W 080°02'2 4.2
2018-Jan-03 04:00N 25°24' W 080°02'2 4.3
2018-Jan-03 03:29N 25°22' W 080°02'2 4.1
2018-Jan-03 03:00N 25°20' W 080°03'2 4.1
2018-Jan-03 02:30N 25°18' W 080°04'5 0.3
2018-Jan-02 06:33N 25°13' W 080°06'1 6.6
2018-Jan-02 06:21N 25°14' W 080°05'2 6.6
2018-Jan-02 06:00N 25°16' W 080°04'3 6.7
2018-Jan-02 05:30N 25°19' W 080°02'7 6.5
2018-Jan-02 04:30N 25°26' W 080°01'3 6.5
2018-Jan-02 04:00N 25°29' W 080°01'3 6.9
2018-Jan-02 03:30N 25°32' W 080°01'4 7.1
2018-Jan-02 03:00N 25°36' W 080°01'4 7.1
2018-Jan-02 02:30N 25°40' W 080°01'3 6.9
2018-Jan-02 02:00N 25°43' W 080°01'3 6.9
2018-Jan-02 01:30N 25°46' W 080°01'3 6.4
2018-Jan-02 01:00N 25°50' W 080°01'2 4.4
2018-Jan-02 00:30N 25°52' W 080°01'2 4.6
2018-Jan-02 00:00N 25°54' W 080°01'3 5.5
2018-Jan-01 23:30N 25°57' W 080°01'3 5.4
2018-Jan-01 23:00N 25°59' W 080°01'3 6.3
2018-Jan-01 22:30N 26°03' W 080°00'5 9.4
2018-Jan-01 22:00N 26°07' W 080°00'5 9.4
2018-Jan-01 21:30N 26°12' W 079°60'5 9.3
2018-Jan-01 21:00N 26°17' W 079°59'5 9.3
2018-Jan-01 20:30N 26°21' W 079°59'5 9.4
2018-Jan-01 20:00N 26°26' W 079°59'510.6
2018-Jan-01 19:30N 26°31' W 079°58'510.4
2018-Jan-01 19:00N 26°36' W 079°58'510.2
2018-Jan-01 18:30N 26°41' W 079°57'5 9.6
2018-Jan-01 18:00N 26°46' W 079°57'5 9.5
2018-Jan-01 17:30N 26°51' W 079°58'24 9.4
2018-Jan-01 15:00N 27°14' W 080°01'  
2017-Dec-27 14:55N 27°04' W 079°54'614.2
2017-Dec-27 14:30N 26°59' W 079°54'714.0
2017-Dec-27 14:00N 26°52' W 079°55'714.1
2017-Dec-27 13:31N 26°45' W 079°55'714.4
2017-Dec-27 13:01N 26°37' W 079°56'714.6
2017-Dec-27 12:30N 26°30' W 079°56'714.7
2017-Dec-27 12:00N 26°23' W 079°57'714.3
2017-Dec-27 11:30N 26°16' W 079°57'714.4
2017-Dec-27 11:00N 26°08' W 079°57'714.1
2017-Dec-27 10:30N 26°01' W 079°57'713.9
2017-Dec-27 10:01N 25°54' W 079°58'714.2
2017-Dec-27 09:30N 25°47' W 079°58'714.1
2017-Dec-27 09:00N 25°40' W 079°59'713.9
2017-Dec-27 08:30N 25°33' W 079°59'713.4
2017-Dec-27 08:00N 25°27' W 079°60'713.3
2017-Dec-27 07:30N 25°20' W 080°00'  

Dump ship's entire track history